sensor_id;sensor_type;location;lat;lon;timestamp;temperature;humidity
10443;DHT22;5269;51.146;16.986;2022-09-04T00:06:09;12.00;99.90
10443;DHT22;5269;51.146;16.986;2022-09-04T00:12:24;11.90;99.90
10443;DHT22;5269;51.146;16.986;2022-09-04T00:18:51;11.80;99.90
10443;DHT22;5269;51.146;16.986;2022-09-04T00:29:01;11.90;99.90
10443;DHT22;5269;51.146;16.986;2022-09-04T00:31:33;11.90;99.90
10443;DHT22;5269;51.146;16.986;2022-09-04T00:34:17;11.80;99.90
10443;DHT22;5269;51.146;16.986;2022-09-04T00:36:51;11.90;99.90
10443;DHT22;5269;51.146;16.986;2022-09-04T00:43:05;11.80;99.90
10443;DHT22;5269;51.146;16.986;2022-09-04T00:55:51;11.60;99.90
10443;DHT22;5269;51.146;16.986;2022-09-04T01:01:43;11.60;99.90
10443;DHT22;5269;51.146;16.986;2022-09-04T01:04:34;11.60;99.90
10443;DHT22;5269;51.146;16.986;2022-09-04T01:07:25;11.60;99.90
10443;DHT22;5269;51.146;16.986;2022-09-04T01:13:22;11.50;99.90
10443;DHT22;5269;51.146;16.986;2022-09-04T01:16:04;11.50;99.90
10443;DHT22;5269;51.146;16.986;2022-09-04T01:18:45;11.50;99.90
10443;DHT22;5269;51.146;16.986;2022-09-04T01:24:45;11.50;99.90
10443;DHT22;5269;51.146;16.986;2022-09-04T01:27:23;11.50;99.90
10443;DHT22;5269;51.146;16.986;2022-09-04T01:30:03;11.60;99.90
10443;DHT22;5269;51.146;16.986;2022-09-04T01:32:43;11.70;99.90
10443;DHT22;5269;51.146;16.986;2022-09-04T01:35:42;11.70;99.90
10443;DHT22;5269;51.146;16.986;2022-09-04T01:42:05;11.80;99.90
10443;DHT22;5269;51.146;16.986;2022-09-04T01:55:14;11.70;99.90
10443;DHT22;5269;51.146;16.986;2022-09-04T02:01:26;11.50;99.90
10443;DHT22;5269;51.146;16.986;2022-09-04T02:07:48;11.60;99.90
10443;DHT22;5269;51.146;16.986;2022-09-04T02:10:29;11.60;99.90
10443;DHT22;5269;51.146;16.986;2022-09-04T02:13:13;11.50;99.90
10443;DHT22;5269;51.146;16.986;2022-09-04T02:15:59;11.50;99.90
10443;DHT22;5269;51.146;16.986;2022-09-04T02:18:42;11.40;99.90
10443;DHT22;5269;51.146;16.986;2022-09-04T02:21:23;11.40;99.90
10443;DHT22;5269;51.146;16.986;2022-09-04T02:24:12;11.40;99.90
10443;DHT22;5269;51.146;16.986;2022-09-04T02:26:56;11.40;99.90
10443;DHT22;5269;51.146;16.986;2022-09-04T02:29:32;11.30;99.90
10443;DHT22;5269;51.146;16.986;2022-09-04T02:32:10;11.30;99.90
10443;DHT22;5269;51.146;16.986;2022-09-04T02:34:52;11.20;99.90
10443;DHT22;5269;51.146;16.986;2022-09-04T02:37:26;11.20;99.90
10443;DHT22;5269;51.146;16.986;2022-09-04T02:40:03;11.20;99.90
10443;DHT22;5269;51.146;16.986;2022-09-04T02:42:43;11.20;99.90
10443;DHT22;5269;51.146;16.986;2022-09-04T02:45:23;11.20;99.90
10443;DHT22;5269;51.146;16.986;2022-09-04T02:51:29;11.20;99.90
10443;DHT22;5269;51.146;16.986;2022-09-04T02:57:31;11.10;99.90
10443;DHT22;5269;51.146;16.986;2022-09-04T03:03:53;11.10;99.90
10443;DHT22;5269;51.146;16.986;2022-09-04T03:10:07;11.00;99.90
10443;DHT22;5269;51.146;16.986;2022-09-04T03:12:42;11.00;99.90
10443;DHT22;5269;51.146;16.986;2022-09-04T03:15:34;11.00;99.90
10443;DHT22;5269;51.146;16.986;2022-09-04T03:18:14;10.90;99.90
10443;DHT22;5269;51.146;16.986;2022-09-04T03:21:05;11.00;99.90
10443;DHT22;5269;51.146;16.986;2022-09-04T03:30:48;10.90;99.90
10443;DHT22;5269;51.146;16.986;2022-09-04T03:36:45;10.90;99.90
10443;DHT22;5269;51.146;16.986;2022-09-04T03:39:24;10.90;99.90
10443;DHT22;5269;51.146;16.986;2022-09-04T03:42:01;11.00;99.90
10443;DHT22;5269;51.146;16.986;2022-09-04T03:44:39;11.00;99.90
10443;DHT22;5269;51.146;16.986;2022-09-04T03:47:22;11.00;99.90
10443;DHT22;5269;51.146;16.986;2022-09-04T03:50:06;11.00;99.90
10443;DHT22;5269;51.146;16.986;2022-09-04T03:52:45;11.00;99.90
10443;DHT22;5269;51.146;16.986;2022-09-04T03:55:33;11.00;99.90
10443;DHT22;5269;51.146;16.986;2022-09-04T03:58:24;10.90;99.90
10443;DHT22;5269;51.146;16.986;2022-09-04T04:01:01;10.90;99.90
10443;DHT22;5269;51.146;16.986;2022-09-04T04:04:04;10.90;99.90
10443;DHT22;5269;51.146;16.986;2022-09-04T04:06:44;10.90;99.90
10443;DHT22;5269;51.146;16.986;2022-09-04T04:09:41;10.80;99.90
10443;DHT22;5269;51.146;16.986;2022-09-04T04:12:43;10.80;99.90
10443;DHT22;5269;51.146;16.986;2022-09-04T04:15:29;10.90;99.90
10443;DHT22;5269;51.146;16.986;2022-09-04T04:21:40;10.80;99.90
10443;DHT22;5269;51.146;16.986;2022-09-04T04:30:38;10.80;99.90
10443;DHT22;5269;51.146;16.986;2022-09-04T04:36:41;10.80;99.90
10443;DHT22;5269;51.146;16.986;2022-09-04T04:42:40;10.90;99.90
10443;DHT22;5269;51.146;16.986;2022-09-04T04:45:21;11.00;99.90
10443;DHT22;5269;51.146;16.986;2022-09-04T04:51:40;11.00;99.90
10443;DHT22;5269;51.146;16.986;2022-09-04T04:54:22;11.10;99.90
10443;DHT22;5269;51.146;16.986;2022-09-04T04:56:56;11.10;99.90
10443;DHT22;5269;51.146;16.986;2022-09-04T04:59:32;11.10;99.90
10443;DHT22;5269;51.146;16.986;2022-09-04T05:02:04;11.20;99.90
10443;DHT22;5269;51.146;16.986;2022-09-04T05:04:40;11.20;99.90
10443;DHT22;5269;51.146;16.986;2022-09-04T05:07:32;11.40;99.90
10443;DHT22;5269;51.146;16.986;2022-09-04T05:10:09;11.50;99.90
10443;DHT22;5269;51.146;16.986;2022-09-04T05:12:50;11.50;99.90
10443;DHT22;5269;51.146;16.986;2022-09-04T05:15:28;11.60;99.90
10443;DHT22;5269;51.146;16.986;2022-09-04T05:21:27;11.80;99.90
10443;DHT22;5269;51.146;16.986;2022-09-04T05:27:45;12.00;99.90
10443;DHT22;5269;51.146;16.986;2022-09-04T05:30:17;12.20;99.90
10443;DHT22;5269;51.146;16.986;2022-09-04T05:32:55;12.20;99.90
10443;DHT22;5269;51.146;16.986;2022-09-04T05:35:37;12.30;99.90
10443;DHT22;5269;51.146;16.986;2022-09-04T05:45:00;12.60;99.90
10443;DHT22;5269;51.146;16.986;2022-09-04T05:47:44;12.90;99.90
10443;DHT22;5269;51.146;16.986;2022-09-04T05:50:52;13.00;99.90
10443;DHT22;5269;51.146;16.986;2022-09-04T05:57:11;13.10;99.90
10443;DHT22;5269;51.146;16.986;2022-09-04T06:00:13;13.30;99.90
10443;DHT22;5269;51.146;16.986;2022-09-04T06:06:10;13.60;99.90
10443;DHT22;5269;51.146;16.986;2022-09-04T06:12:47;13.90;99.90
10443;DHT22;5269;51.146;16.986;2022-09-04T06:15:26;14.10;99.90
10443;DHT22;5269;51.146;16.986;2022-09-04T06:18:15;14.20;99.90
10443;DHT22;5269;51.146;16.986;2022-09-04T06:20:59;14.40;1.00
10443;DHT22;5269;51.146;16.986;2022-09-04T06:23:54;14.60;1.00
10443;DHT22;5269;51.146;16.986;2022-09-04T06:26:44;14.80;1.00
10443;DHT22;5269;51.146;16.986;2022-09-04T06:29:38;15.00;1.00
10443;DHT22;5269;51.146;16.986;2022-09-04T06:32:43;15.20;99.90
10443;DHT22;5269;51.146;16.986;2022-09-04T06:35:45;15.20;1.00
10443;DHT22;5269;51.146;16.986;2022-09-04T06:38:32;15.30;99.90
10443;DHT22;5269;51.146;16.986;2022-09-04T06:41:23;15.20;1.00
10443;DHT22;5269;51.146;16.986;2022-09-04T06:44:03;15.30;1.00
10443;DHT22;5269;51.146;16.986;2022-09-04T06:46:40;15.20;1.00
10443;DHT22;5269;51.146;16.986;2022-09-04T06:49:13;15.20;1.00
10443;DHT22;5269;51.146;16.986;2022-09-04T06:51:52;15.20;1.00
10443;DHT22;5269;51.146;16.986;2022-09-04T06:54:51;15.30;1.00
10443;DHT22;5269;51.146;16.986;2022-09-04T06:57:51;15.40;1.00
10443;DHT22;5269;51.146;16.986;2022-09-04T07:03:37;15.60;99.90
10443;DHT22;5269;51.146;16.986;2022-09-04T07:06:12;15.60;1.00
10443;DHT22;5269;51.146;16.986;2022-09-04T07:08:56;15.60;99.90
10443;DHT22;5269;51.146;16.986;2022-09-04T07:11:41;15.70;39.70
10443;DHT22;5269;51.146;16.986;2022-09-04T07:17:05;15.80;1.00
10443;DHT22;5269;51.146;16.986;2022-09-04T07:19:49;16.00;1.00
10443;DHT22;5269;51.146;16.986;2022-09-04T07:25:18;16.00;1.00
10443;DHT22;5269;51.146;16.986;2022-09-04T07:27:58;16.00;1.00
10443;DHT22;5269;51.146;16.986;2022-09-04T07:30:30;15.90;1.00
10443;DHT22;5269;51.146;16.986;2022-09-04T07:33:01;16.00;1.00
10443;DHT22;5269;51.146;16.986;2022-09-04T07:35:34;16.20;1.00
10443;DHT22;5269;51.146;16.986;2022-09-04T07:38:09;16.30;1.00
10443;DHT22;5269;51.146;16.986;2022-09-04T07:40:43;16.30;1.00
10443;DHT22;5269;51.146;16.986;2022-09-04T07:43:17;16.10;1.00
10443;DHT22;5269;51.146;16.986;2022-09-04T07:45:49;16.10;1.00
10443;DHT22;5269;51.146;16.986;2022-09-04T07:48:26;16.10;1.00
10443;DHT22;5269;51.146;16.986;2022-09-04T07:50:57;16.10;1.00
10443;DHT22;5269;51.146;16.986;2022-09-04T07:56:39;16.20;1.00
10443;DHT22;5269;51.146;16.986;2022-09-04T07:59:28;16.40;1.00
10443;DHT22;5269;51.146;16.986;2022-09-04T08:02:09;16.60;99.90
10443;DHT22;5269;51.146;16.986;2022-09-04T08:05:06;16.60;99.90
10443;DHT22;5269;51.146;16.986;2022-09-04T08:08:04;16.80;99.90
10443;DHT22;5269;51.146;16.986;2022-09-04T08:10:38;17.00;99.90
10443;DHT22;5269;51.146;16.986;2022-09-04T08:13:26;17.00;99.90
10443;DHT22;5269;51.146;16.986;2022-09-04T08:16:05;17.10;99.90
10443;DHT22;5269;51.146;16.986;2022-09-04T08:18:44;17.20;99.90
10443;DHT22;5269;51.146;16.986;2022-09-04T08:21:25;17.40;99.90
10443;DHT22;5269;51.146;16.986;2022-09-04T08:26:54;17.50;99.90
10443;DHT22;5269;51.146;16.986;2022-09-04T08:29:48;17.50;99.10
10443;DHT22;5269;51.146;16.986;2022-09-04T08:35:22;17.70;99.90
10443;DHT22;5269;51.146;16.986;2022-09-04T08:38:15;17.80;37.50
10443;DHT22;5269;51.146;16.986;2022-09-04T08:41:18;17.90;16.20
10443;DHT22;5269;51.146;16.986;2022-09-04T08:44:20;17.90;1.00
10443;DHT22;5269;51.146;16.986;2022-09-04T08:50:30;18.20;1.00
10443;DHT22;5269;51.146;16.986;2022-09-04T08:53:52;18.50;1.00
10443;DHT22;5269;51.146;16.986;2022-09-04T08:56:32;18.60;1.00
10443;DHT22;5269;51.146;16.986;2022-09-04T08:59:43;18.70;1.00
10443;DHT22;5269;51.146;16.986;2022-09-04T09:08:48;18.70;1.00
10443;DHT22;5269;51.146;16.986;2022-09-04T09:11:48;18.70;1.00
10443;DHT22;5269;51.146;16.986;2022-09-04T09:14:39;18.70;1.00
10443;DHT22;5269;51.146;16.986;2022-09-04T09:17:14;18.90;1.00
10443;DHT22;5269;51.146;16.986;2022-09-04T09:19:46;19.00;1.00
10443;DHT22;5269;51.146;16.986;2022-09-04T09:22:42;19.10;1.00
10443;DHT22;5269;51.146;16.986;2022-09-04T09:25:17;19.20;1.00
10443;DHT22;5269;51.146;16.986;2022-09-04T09:37:47;19.60;1.00
10443;DHT22;5269;51.146;16.986;2022-09-04T09:44:17;19.90;1.00
10443;DHT22;5269;51.146;16.986;2022-09-04T09:59:29;20.30;1.00
10443;DHT22;5269;51.146;16.986;2022-09-04T10:02:18;20.40;1.00
10443;DHT22;5269;51.146;16.986;2022-09-04T10:05:26;20.40;1.00
10443;DHT22;5269;51.146;16.986;2022-09-04T10:20:40;20.70;1.00
10443;DHT22;5269;51.146;16.986;2022-09-04T10:23:35;20.90;1.00
10443;DHT22;5269;51.146;16.986;2022-09-04T10:29:24;21.10;1.00
10443;DHT22;5269;51.146;16.986;2022-09-04T10:32:08;21.10;1.00
10443;DHT22;5269;51.146;16.986;2022-09-04T10:35:15;21.00;1.00
10443;DHT22;5269;51.146;16.986;2022-09-04T10:38:05;21.10;1.00
10443;DHT22;5269;51.146;16.986;2022-09-04T10:40:44;21.10;1.00
10443;DHT22;5269;51.146;16.986;2022-09-04T10:43:24;21.10;1.00
10443;DHT22;5269;51.146;16.986;2022-09-04T10:46:00;21.10;1.00
10443;DHT22;5269;51.146;16.986;2022-09-04T10:48:58;21.20;1.00
10443;DHT22;5269;51.146;16.986;2022-09-04T10:52:00;21.20;1.00
10443;DHT22;5269;51.146;16.986;2022-09-04T10:57:55;21.40;1.00
10443;DHT22;5269;51.146;16.986;2022-09-04T11:00:33;21.40;1.00
10443;DHT22;5269;51.146;16.986;2022-09-04T11:03:22;21.40;1.00
10443;DHT22;5269;51.146;16.986;2022-09-04T11:09:12;21.40;1.00
10443;DHT22;5269;51.146;16.986;2022-09-04T11:12:09;21.60;1.00
10443;DHT22;5269;51.146;16.986;2022-09-04T11:21:30;21.70;1.00
10443;DHT22;5269;51.146;16.986;2022-09-04T11:24:41;21.90;1.00
10443;DHT22;5269;51.146;16.986;2022-09-04T11:27:55;21.80;1.00
10443;DHT22;5269;51.146;16.986;2022-09-04T11:30:34;22.10;1.00
10443;DHT22;5269;51.146;16.986;2022-09-04T11:39:41;22.10;1.00
10443;DHT22;5269;51.146;16.986;2022-09-04T11:42:28;22.20;1.00
10443;DHT22;5269;51.146;16.986;2022-09-04T11:51:23;22.40;1.00
10443;DHT22;5269;51.146;16.986;2022-09-04T11:57:18;22.40;1.00
10443;DHT22;5269;51.146;16.986;2022-09-04T12:00:12;22.50;1.00
10443;DHT22;5269;51.146;16.986;2022-09-04T12:06:01;22.30;1.00
10443;DHT22;5269;51.146;16.986;2022-09-04T12:11:56;22.40;1.00
10443;DHT22;5269;51.146;16.986;2022-09-04T12:14:54;22.50;1.00
10443;DHT22;5269;51.146;16.986;2022-09-04T12:17:45;22.70;1.00
10443;DHT22;5269;51.146;16.986;2022-09-04T12:20:42;22.90;1.00
10443;DHT22;5269;51.146;16.986;2022-09-04T12:23:32;22.90;1.00
10443;DHT22;5269;51.146;16.986;2022-09-04T12:26:23;22.80;1.00
10443;DHT22;5269;51.146;16.986;2022-09-04T12:41:31;22.70;1.00
10443;DHT22;5269;51.146;16.986;2022-09-04T12:44:07;22.60;1.00
10443;DHT22;5269;51.146;16.986;2022-09-04T12:46:58;22.50;1.00
10443;DHT22;5269;51.146;16.986;2022-09-04T13:00:01;22.90;1.00
10443;DHT22;5269;51.146;16.986;2022-09-04T13:02:45;23.20;1.00
10443;DHT22;5269;51.146;16.986;2022-09-04T13:18:42;22.60;1.00
10443;DHT22;5269;51.146;16.986;2022-09-04T13:21:25;22.50;1.00
10443;DHT22;5269;51.146;16.986;2022-09-04T13:24:07;22.50;1.00
10443;DHT22;5269;51.146;16.986;2022-09-04T13:26:54;22.50;1.00
10443;DHT22;5269;51.146;16.986;2022-09-04T13:29:33;22.40;1.00
10443;DHT22;5269;51.146;16.986;2022-09-04T13:32:17;22.50;1.00
10443;DHT22;5269;51.146;16.986;2022-09-04T13:42:04;22.60;1.00
10443;DHT22;5269;51.146;16.986;2022-09-04T13:44:58;22.60;1.00
10443;DHT22;5269;51.146;16.986;2022-09-04T13:47:36;22.60;1.00
10443;DHT22;5269;51.146;16.986;2022-09-04T13:50:07;22.60;1.00
10443;DHT22;5269;51.146;16.986;2022-09-04T13:52:42;22.60;1.00
10443;DHT22;5269;51.146;16.986;2022-09-04T13:55:14;22.80;1.00
10443;DHT22;5269;51.146;16.986;2022-09-04T13:57:48;23.10;1.00
10443;DHT22;5269;51.146;16.986;2022-09-04T14:00:22;23.20;1.00
10443;DHT22;5269;51.146;16.986;2022-09-04T14:02:53;23.30;1.00
10443;DHT22;5269;51.146;16.986;2022-09-04T14:05:22;23.30;1.00
10443;DHT22;5269;51.146;16.986;2022-09-04T14:07:57;23.40;1.00
10443;DHT22;5269;51.146;16.986;2022-09-04T14:10:42;23.60;1.00
10443;DHT22;5269;51.146;16.986;2022-09-04T14:19:56;24.20;1.00
10443;DHT22;5269;51.146;16.986;2022-09-04T14:22:37;24.20;1.00
10443;DHT22;5269;51.146;16.986;2022-09-04T14:25:13;24.00;1.00
10443;DHT22;5269;51.146;16.986;2022-09-04T14:27:50;24.10;1.00
10443;DHT22;5269;51.146;16.986;2022-09-04T14:30:19;24.10;1.00
10443;DHT22;5269;51.146;16.986;2022-09-04T14:33:00;24.20;1.00
10443;DHT22;5269;51.146;16.986;2022-09-04T14:35:34;24.00;1.00
10443;DHT22;5269;51.146;16.986;2022-09-04T14:38:35;23.90;1.00
10443;DHT22;5269;51.146;16.986;2022-09-04T14:41:15;24.00;1.00
10443;DHT22;5269;51.146;16.986;2022-09-04T14:47:12;24.00;1.00
10443;DHT22;5269;51.146;16.986;2022-09-04T14:49:47;24.00;1.00
10443;DHT22;5269;51.146;16.986;2022-09-04T14:55:28;23.80;1.00
10443;DHT22;5269;51.146;16.986;2022-09-04T14:58:01;23.80;1.00
10443;DHT22;5269;51.146;16.986;2022-09-04T15:04:00;23.70;1.00
10443;DHT22;5269;51.146;16.986;2022-09-04T15:06:33;23.60;1.00
10443;DHT22;5269;51.146;16.986;2022-09-04T15:09:25;23.50;1.00
10443;DHT22;5269;51.146;16.986;2022-09-04T15:11:54;23.80;1.00
10443;DHT22;5269;51.146;16.986;2022-09-04T15:14:38;24.00;1.00
10443;DHT22;5269;51.146;16.986;2022-09-04T15:17:10;24.10;1.00
10443;DHT22;5269;51.146;16.986;2022-09-04T15:19:43;24.10;1.00
10443;DHT22;5269;51.146;16.986;2022-09-04T15:22:15;24.20;1.00
10443;DHT22;5269;51.146;16.986;2022-09-04T15:24:49;24.30;1.00
10443;DHT22;5269;51.146;16.986;2022-09-04T15:27:21;24.50;1.00
10443;DHT22;5269;51.146;16.986;2022-09-04T15:30:05;24.70;1.00
10443;DHT22;5269;51.146;16.986;2022-09-04T15:32:37;24.70;1.00
10443;DHT22;5269;51.146;16.986;2022-09-04T15:35:12;24.70;1.00
10443;DHT22;5269;51.146;16.986;2022-09-04T15:37:41;24.80;1.00
10443;DHT22;5269;51.146;16.986;2022-09-04T15:40:22;24.90;1.00
10443;DHT22;5269;51.146;16.986;2022-09-04T15:43:00;24.70;1.00
10443;DHT22;5269;51.146;16.986;2022-09-04T15:45:38;24.50;1.00
10443;DHT22;5269;51.146;16.986;2022-09-04T15:48:31;24.50;1.00
10443;DHT22;5269;51.146;16.986;2022-09-04T15:54:52;24.20;1.00
10443;DHT22;5269;51.146;16.986;2022-09-04T15:57:32;23.80;1.00
10443;DHT22;5269;51.146;16.986;2022-09-04T16:00:11;23.60;1.00
10443;DHT22;5269;51.146;16.986;2022-09-04T16:02:52;23.30;1.00
10443;DHT22;5269;51.146;16.986;2022-09-04T16:05:40;23.10;1.00
10443;DHT22;5269;51.146;16.986;2022-09-04T16:08:38;23.00;1.00
10443;DHT22;5269;51.146;16.986;2022-09-04T16:11:20;22.70;1.00
10443;DHT22;5269;51.146;16.986;2022-09-04T16:17:17;22.50;1.00
10443;DHT22;5269;51.146;16.986;2022-09-04T16:29:54;22.50;1.00
10443;DHT22;5269;51.146;16.986;2022-09-04T16:32:25;22.30;1.00
10443;DHT22;5269;51.146;16.986;2022-09-04T16:34:56;22.20;1.00
10443;DHT22;5269;51.146;16.986;2022-09-04T16:37:29;22.10;1.00
10443;DHT22;5269;51.146;16.986;2022-09-04T16:40:12;22.10;1.00
10443;DHT22;5269;51.146;16.986;2022-09-04T16:42:44;21.90;1.00
10443;DHT22;5269;51.146;16.986;2022-09-04T16:45:18;21.90;1.00
10443;DHT22;5269;51.146;16.986;2022-09-04T16:47:52;21.80;1.00
10443;DHT22;5269;51.146;16.986;2022-09-04T16:50:24;21.70;1.00
10443;DHT22;5269;51.146;16.986;2022-09-04T16:53:01;21.50;1.00
10443;DHT22;5269;51.146;16.986;2022-09-04T16:55:33;21.40;1.00
10443;DHT22;5269;51.146;16.986;2022-09-04T16:58:17;21.30;1.00
10443;DHT22;5269;51.146;16.986;2022-09-04T17:00:55;21.20;1.00
10443;DHT22;5269;51.146;16.986;2022-09-04T17:03:40;21.10;1.00
10443;DHT22;5269;51.146;16.986;2022-09-04T17:12:54;20.80;1.00
10443;DHT22;5269;51.146;16.986;2022-09-04T17:15:29;20.70;1.00
10443;DHT22;5269;51.146;16.986;2022-09-04T17:17:58;20.60;1.00
10443;DHT22;5269;51.146;16.986;2022-09-04T17:20:37;20.50;1.00
10443;DHT22;5269;51.146;16.986;2022-09-04T17:23:17;20.40;1.00
10443;DHT22;5269;51.146;16.986;2022-09-04T17:25:48;20.20;1.00
10443;DHT22;5269;51.146;16.986;2022-09-04T17:28:48;20.10;1.00
10443;DHT22;5269;51.146;16.986;2022-09-04T17:31:22;20.10;1.00
10443;DHT22;5269;51.146;16.986;2022-09-04T17:33:56;19.90;1.00
10443;DHT22;5269;51.146;16.986;2022-09-04T17:36:30;19.80;1.00
10443;DHT22;5269;51.146;16.986;2022-09-04T17:39:03;19.70;1.00
10443;DHT22;5269;51.146;16.986;2022-09-04T17:41:38;19.50;1.00
10443;DHT22;5269;51.146;16.986;2022-09-04T17:44:29;19.40;1.00
10443;DHT22;5269;51.146;16.986;2022-09-04T17:47:11;19.40;13.90
10443;DHT22;5269;51.146;16.986;2022-09-04T17:53:27;19.30;99.90
10443;DHT22;5269;51.146;16.986;2022-09-04T17:55:59;19.30;99.90
10443;DHT22;5269;51.146;16.986;2022-09-04T17:59:05;19.10;99.90
10443;DHT22;5269;51.146;16.986;2022-09-04T18:04:28;18.70;99.90
10443;DHT22;5269;51.146;16.986;2022-09-04T18:12:30;18.50;1.00
10443;DHT22;5269;51.146;16.986;2022-09-04T18:15:07;18.40;1.00
10443;DHT22;5269;51.146;16.986;2022-09-04T18:21:05;18.20;1.00
10443;DHT22;5269;51.146;16.986;2022-09-04T18:23:47;18.10;1.00
10443;DHT22;5269;51.146;16.986;2022-09-04T18:29:49;17.90;1.00
10443;DHT22;5269;51.146;16.986;2022-09-04T18:35:51;17.70;99.90
10443;DHT22;5269;51.146;16.986;2022-09-04T18:41:56;17.60;99.90
10443;DHT22;5269;51.146;16.986;2022-09-04T18:48:00;17.40;1.00
10443;DHT22;5269;51.146;16.986;2022-09-04T18:50:36;17.40;1.00
10443;DHT22;5269;51.146;16.986;2022-09-04T18:53:08;17.40;1.00
10443;DHT22;5269;51.146;16.986;2022-09-04T18:55:44;17.30;1.00
10443;DHT22;5269;51.146;16.986;2022-09-04T19:01:39;17.40;1.00
10443;DHT22;5269;51.146;16.986;2022-09-04T19:07:36;17.20;1.00
10443;DHT22;5269;51.146;16.986;2022-09-04T19:13:28;17.00;99.90
10443;DHT22;5269;51.146;16.986;2022-09-04T19:16:00;16.80;1.00
10443;DHT22;5269;51.146;16.986;2022-09-04T19:18:41;16.70;1.00
10443;DHT22;5269;51.146;16.986;2022-09-04T19:24:37;16.70;1.00
10443;DHT22;5269;51.146;16.986;2022-09-04T19:30:31;16.50;1.00
10443;DHT22;5269;51.146;16.986;2022-09-04T19:36:26;16.40;99.90
10443;DHT22;5269;51.146;16.986;2022-09-04T19:42:24;16.40;1.00
10443;DHT22;5269;51.146;16.986;2022-09-04T19:48:40;16.30;1.00
10443;DHT22;5269;51.146;16.986;2022-09-04T19:51:11;16.20;99.90
10443;DHT22;5269;51.146;16.986;2022-09-04T19:53:49;16.20;93.30
10443;DHT22;5269;51.146;16.986;2022-09-04T19:56:27;16.20;99.90
10443;DHT22;5269;51.146;16.986;2022-09-04T19:59:02;16.10;99.90
10443;DHT22;5269;51.146;16.986;2022-09-04T20:01:38;16.10;1.00
10443;DHT22;5269;51.146;16.986;2022-09-04T20:04:09;16.00;1.00
10443;DHT22;5269;51.146;16.986;2022-09-04T20:06:45;16.00;1.00
10443;DHT22;5269;51.146;16.986;2022-09-04T20:09:16;16.10;7.90
10443;DHT22;5269;51.146;16.986;2022-09-04T20:11:52;16.00;1.00
10443;DHT22;5269;51.146;16.986;2022-09-04T20:14:26;16.00;1.00
10443;DHT22;5269;51.146;16.986;2022-09-04T20:17:10;15.90;99.90
10443;DHT22;5269;51.146;16.986;2022-09-04T20:19:45;15.90;99.90
10443;DHT22;5269;51.146;16.986;2022-09-04T20:22:27;15.90;99.90
10443;DHT22;5269;51.146;16.986;2022-09-04T20:28:32;15.70;1.00
10443;DHT22;5269;51.146;16.986;2022-09-04T20:34:28;15.60;1.00
10443;DHT22;5269;51.146;16.986;2022-09-04T20:37:18;15.60;1.00
10443;DHT22;5269;51.146;16.986;2022-09-04T20:39:55;15.60;1.00
10443;DHT22;5269;51.146;16.986;2022-09-04T20:45:50;15.50;1.00
10443;DHT22;5269;51.146;16.986;2022-09-04T20:48:25;15.50;1.00
10443;DHT22;5269;51.146;16.986;2022-09-04T20:51:00;15.50;1.00
10443;DHT22;5269;51.146;16.986;2022-09-04T20:53:34;15.40;1.00
10443;DHT22;5269;51.146;16.986;2022-09-04T20:56:14;15.30;1.00
10443;DHT22;5269;51.146;16.986;2022-09-04T20:59:00;15.30;1.00
10443;DHT22;5269;51.146;16.986;2022-09-04T21:01:48;15.20;1.00
10443;DHT22;5269;51.146;16.986;2022-09-04T21:04:23;15.20;1.00
10443;DHT22;5269;51.146;16.986;2022-09-04T21:07:00;15.20;1.00
10443;DHT22;5269;51.146;16.986;2022-09-04T21:09:45;15.20;1.00
10443;DHT22;5269;51.146;16.986;2022-09-04T21:12:24;15.10;1.00
10443;DHT22;5269;51.146;16.986;2022-09-04T21:14:56;15.10;1.00
10443;DHT22;5269;51.146;16.986;2022-09-04T21:17:43;15.00;1.00
10443;DHT22;5269;51.146;16.986;2022-09-04T21:20:47;15.00;14.50
10443;DHT22;5269;51.146;16.986;2022-09-04T21:26:20;14.80;99.90
10443;DHT22;5269;51.146;16.986;2022-09-04T21:29:05;14.80;99.90
10443;DHT22;5269;51.146;16.986;2022-09-04T21:31:50;14.80;99.90
10443;DHT22;5269;51.146;16.986;2022-09-04T21:34:41;14.70;99.90
10443;DHT22;5269;51.146;16.986;2022-09-04T21:37:16;14.70;99.90
10443;DHT22;5269;51.146;16.986;2022-09-04T21:43:01;14.70;99.90
10443;DHT22;5269;51.146;16.986;2022-09-04T21:45:43;14.70;99.90
10443;DHT22;5269;51.146;16.986;2022-09-04T21:48:35;14.70;99.90
10443;DHT22;5269;51.146;16.986;2022-09-04T21:51:24;14.70;99.90
10443;DHT22;5269;51.146;16.986;2022-09-04T21:54:22;14.60;99.90
10443;DHT22;5269;51.146;16.986;2022-09-04T22:00:03;14.60;99.90
10443;DHT22;5269;51.146;16.986;2022-09-04T22:02:40;14.50;99.90
10443;DHT22;5269;51.146;16.986;2022-09-04T22:05:14;14.50;99.90
10443;DHT22;5269;51.146;16.986;2022-09-04T22:07:47;14.50;99.90
10443;DHT22;5269;51.146;16.986;2022-09-04T22:10:35;14.50;99.90
10443;DHT22;5269;51.146;16.986;2022-09-04T22:13:21;14.40;99.90
10443;DHT22;5269;51.146;16.986;2022-09-04T22:15:58;14.40;99.90
10443;DHT22;5269;51.146;16.986;2022-09-04T22:18:47;14.40;99.90
10443;DHT22;5269;51.146;16.986;2022-09-04T22:21:25;14.40;99.90
10443;DHT22;5269;51.146;16.986;2022-09-04T22:24:21;14.40;99.90
10443;DHT22;5269;51.146;16.986;2022-09-04T22:30:03;14.20;99.90
10443;DHT22;5269;51.146;16.986;2022-09-04T22:32:56;14.30;99.90
10443;DHT22;5269;51.146;16.986;2022-09-04T22:39:12;14.30;99.90
10443;DHT22;5269;51.146;16.986;2022-09-04T22:42:21;14.30;99.90
10443;DHT22;5269;51.146;16.986;2022-09-04T22:45:14;14.40;99.90
10443;DHT22;5269;51.146;16.986;2022-09-04T22:47:58;14.40;99.90
10443;DHT22;5269;51.146;16.986;2022-09-04T22:50:35;14.50;99.90
10443;DHT22;5269;51.146;16.986;2022-09-04T22:53:27;14.50;99.90
10443;DHT22;5269;51.146;16.986;2022-09-04T22:55:58;14.40;99.90
10443;DHT22;5269;51.146;16.986;2022-09-04T23:01:44;14.60;99.90
10443;DHT22;5269;51.146;16.986;2022-09-04T23:04:47;14.60;99.90
10443;DHT22;5269;51.146;16.986;2022-09-04T23:07:36;14.60;99.90
10443;DHT22;5269;51.146;16.986;2022-09-04T23:10:27;14.60;99.90
10443;DHT22;5269;51.146;16.986;2022-09-04T23:13:25;14.70;99.90
10443;DHT22;5269;51.146;16.986;2022-09-04T23:16:11;14.80;45.30
10443;DHT22;5269;51.146;16.986;2022-09-04T23:19:04;14.90;1.00
10443;DHT22;5269;51.146;16.986;2022-09-04T23:28:03;14.70;99.90
10443;DHT22;5269;51.146;16.986;2022-09-04T23:30:42;14.70;1.00
10443;DHT22;5269;51.146;16.986;2022-09-04T23:33:35;14.70;1.00
10443;DHT22;5269;51.146;16.986;2022-09-04T23:36:28;14.70;1.00
10443;DHT22;5269;51.146;16.986;2022-09-04T23:39:33;14.70;1.00
10443;DHT22;5269;51.146;16.986;2022-09-04T23:42:24;14.70;1.00
10443;DHT22;5269;51.146;16.986;2022-09-04T23:45:20;14.60;99.90
10443;DHT22;5269;51.146;16.986;2022-09-04T23:48:01;14.60;1.00
10443;DHT22;5269;51.146;16.986;2022-09-04T23:50:44;14.60;1.00
10443;DHT22;5269;51.146;16.986;2022-09-04T23:53:23;14.60;1.00
10443;DHT22;5269;51.146;16.986;2022-09-04T23:56:08;14.60;99.90
